EGHI - Southampton Weather Centre
Distance from station: E 5mi, 14km
Updated: 07/20/2018 4:50am
Partly Cloudy
Partly Cloudy
 Wind from SE
Wind: SE 9 mph , 15 km/h
Temperature: 70°F , 21°C
Dew Point: 55°F , 13°C
Humidity: 60%
Barometer: 29.94 inHg , 1014 hPa
Clouds: Partly Cloudy
Visibility: 6 miles , 10 km
Cloud details: Few Clouds 3000 ft
Partly Cloudy 4900 ft
2018/07/20 11:50 EGHI 201150Z 13008KT 070V180 9999 FEW030 SCT049 21/13 Q1014